Time;durP1;ratioP1;P1;durP2;ratioP2;P2;SDS_P1;SDS_P2;PMS_P1;PMS_P2;Temp;Humidity;BMP_temperature;BMP_pressure;BME280_temperature;BME280_humidity;BME280_pressure;Samples;Min_cycle;Max_cycle;Signal;HPM_P1;HPM_P2
2022/10/27 00:02:05;;;;;;;11.65;2.90;;;;;;;20.92;65.79;100211.50;7312890;19;129095;-37
2022/10/27 00:04:30;;;;;;;11.65;3.08;;;;;;;20.92;65.66;100208.88;7311640;19;131717;-37
2022/10/27 00:06:55;;;;;;;8.30;2.40;;;;;;;20.90;65.72;100217.78;7313381;19;129228;-37
2022/10/27 00:09:21;;;;;;;10.23;2.72;;;;;;;20.90;65.67;100218.59;7311679;19;129696;-37
2022/10/27 00:11:46;;;;;;;9.60;2.58;;;;;;;20.92;66.17;100216.72;7314935;19;129338;-36
2022/10/27 00:14:11;;;;;;;10.00;2.30;;;;;;;20.88;65.73;100220.50;7313964;19;129706;-37
2022/10/27 00:16:37;;;;;;;9.52;2.70;;;;;;;20.90;66.49;100221.22;7312261;19;131283;-37
2022/10/27 00:19:02;;;;;;;12.57;2.83;;;;;;;20.91;66.50;100222.88;7312404;19;129181;-36
2022/10/27 00:21:27;;;;;;;8.52;2.55;;;;;;;20.90;66.52;100223.00;7313023;19;129440;-37
2022/10/27 00:23:53;;;;;;;10.88;2.55;;;;;;;20.95;66.13;100232.16;7312835;19;129135;-37
2022/10/27 00:26:20;;;;;;;12.52;2.80;;;;;;;20.94;66.62;100229.66;7312611;19;129990;-37
2022/10/27 00:28:45;;;;;;;14.30;2.67;;;;;;;20.88;65.77;100230.97;7313110;19;130882;-36
2022/10/27 00:31:16;;;;;;;8.30;2.22;;;;;;;20.90;66.58;100234.28;7313064;19;129473;-36
2022/10/27 00:33:44;;;;;;;13.57;3.10;;;;;;;20.89;66.40;100245.69;7312955;19;129571;-37
2022/10/27 00:36:15;;;;;;;8.00;2.10;;;;;;;20.93;66.13;100247.13;7312022;19;128947;-37
2022/10/27 00:38:41;;;;;;;16.10;3.38;;;;;;;20.92;65.80;100244.63;7313131;19;129016;-36
2022/10/27 00:41:16;;;;;;;9.60;2.45;;;;;;;20.90;66.28;100247.34;7313807;19;129492;-36
2022/10/27 00:43:41;;;;;;;7.97;2.53;;;;;;;20.92;65.83;100253.31;7313819;19;129177;-36
2022/10/27 00:46:31;;;;;;;8.80;2.50;;;;;;;20.90;67.52;100255.19;7312182;19;129840;-36
2022/10/27 00:49:02;;;;;;;10.15;2.47;;;;;;;20.86;66.02;100250.34;7310180;19;129310;-38
2022/10/27 00:51:28;;;;;;;12.82;2.70;;;;;;;20.91;65.79;100256.84;7310527;19;131028;-36
2022/10/27 00:53:54;;;;;;;13.33;2.83;;;;;;;20.89;66.43;100248.28;7312809;19;129448;-37
2022/10/27 00:56:22;;;;;;;15.35;3.28;;;;;;;20.87;66.77;100255.44;7310815;19;129135;-36
2022/10/27 00:58:48;;;;;;;9.10;2.35;;;;;;;20.91;66.31;100251.63;7312734;19;129082;-37
2022/10/27 01:01:14;;;;;;;12.40;2.83;;;;;;;20.90;66.46;100259.59;7310834;19;129832;-37
2022/10/27 01:03:40;;;;;;;9.43;2.50;;;;;;;20.82;66.42;100247.13;7311238;19;129375;-37
2022/10/27 01:06:05;;;;;;;4.55;1.67;;;;;;;20.89;66.06;100263.97;7311161;19;128959;-37
2022/10/27 01:08:31;;;;;;;11.07;2.88;;;;;;;20.92;66.45;100274.22;7312843;19;129488;-36
2022/10/27 01:10:56;;;;;;;7.55;1.90;;;;;;;20.92;65.63;100273.38;7311197;19;129598;-38
2022/10/27 01:13:22;;;;;;;14.93;3.25;;;;;;;20.91;66.65;100280.38;7312230;19;129025;-37
2022/10/27 01:16:25;;;;;;;8.57;2.47;;;;;;;20.91;67.46;100282.97;7311279;19;128970;-38
2022/10/27 01:19:33;;;;;;;8.60;2.13;;;;;;;20.92;67.76;100278.59;7311323;19;129832;-36
2022/10/27 01:22:16;;;;;;;8.00;1.90;;;;;;;20.89;67.29;100282.28;7307150;19;130294;-35
2022/10/27 01:24:42;;;;;;;13.90;2.70;;;;;;;20.92;65.64;100276.81;7311934;19;129193;-35
2022/10/27 01:27:13;;;;;;;8.60;2.55;;;;;;;20.91;66.85;100275.16;7310615;19;129121;-37
2022/10/27 01:29:58;;;;;;;10.80;2.72;;;;;;;20.90;66.84;100273.50;7312625;19;129462;-36
2022/10/27 01:32:39;;;;;;;8.93;2.15;;;;;;;20.92;66.74;100273.38;7310192;19;129143;-37
2022/10/27 01:35:12;;;;;;;9.65;2.45;;;;;;;20.83;67.09;100264.47;7310941;19;129306;-37
2022/10/27 01:37:42;;;;;;;11.55;2.80;;;;;;;20.87;66.85;100278.13;7309806;19;129805;-37
2022/10/27 01:40:28;;;;;;;17.00;3.45;;;;;;;20.89;67.34;100277.03;7310631;19;131579;-36
2022/10/27 01:43:02;;;;;;;11.85;2.40;;;;;;;20.89;67.13;100284.88;7311390;19;129079;-38
2022/10/27 01:45:32;;;;;;;7.13;2.45;;;;;;;20.89;66.25;100284.88;7309542;19;129183;-38
2022/10/27 01:47:58;;;;;;;11.15;2.72;;;;;;;20.90;66.63;100281.34;7308607;19;129406;-37
2022/10/27 01:50:28;;;;;;;8.15;2.17;;;;;;;20.92;66.49;100279.44;7312105;19;129385;-37
2022/10/27 01:52:53;;;;;;;10.48;2.47;;;;;;;20.94;65.80;100279.31;7311740;19;132399;-37
2022/10/27 01:55:26;;;;;;;14.10;2.80;;;;;;;20.80;66.57;100267.31;7309285;19;129677;-37
2022/10/27 01:58:09;;;;;;;15.30;3.50;;;;;;;20.91;66.24;100282.97;7308097;19;128970;-37
2022/10/27 02:00:49;;;;;;;4.65;1.55;;;;;;;20.91;67.13;100288.22;7310320;19;128741;-37
2022/10/27 02:03:18;;;;;;;12.43;3.17;;;;;;;20.92;65.97;100289.91;7311326;19;129756;-35
2022/10/27 02:05:59;;;;;;;12.75;3.08;;;;;;;20.93;67.15;100290.72;7308981;19;129227;-37
2022/10/27 02:08:37;;;;;;;4.35;1.85;;;;;;;20.93;66.17;100285.47;7310762;19;129391;-38
2022/10/27 02:11:05;;;;;;;16.13;3.42;;;;;;;20.90;65.96;100285.72;7311156;19;130341;-38
2022/10/27 02:13:34;;;;;;;17.13;3.65;;;;;;;20.89;66.17;100284.88;7311133;19;129396;-37
2022/10/27 02:16:06;;;;;;;6.32;2.17;;;;;;;20.86;66.47;100285.13;7314427;19;129944;-37
2022/10/27 02:18:36;;;;;;;10.98;2.47;;;;;;;20.87;66.43;100292.03;7317892;19;129627;-37
2022/10/27 02:21:05;;;;;;;9.82;2.40;;;;;;;20.90;66.73;100293.56;7315491;19;130243;-37
2022/10/27 02:23:31;;;;;;;14.05;3.15;;;;;;;20.88;66.56;100296.28;7317036;19;130084;-36
2022/10/27 02:26:19;;;;;;;16.13;3.33;;;;;;;20.88;66.61;100293.69;7317010;19;129544;-37
2022/10/27 02:28:54;;;;;;;7.53;2.17;;;;;;;20.88;66.83;100295.47;7318252;19;129692;-35
2022/10/27 02:31:26;;;;;;;11.13;2.38;;;;;;;20.87;67.00;100296.41;7318676;19;129488;-37
2022/10/27 02:33:52;;;;;;;10.52;2.70;;;;;;;20.89;66.40;100290.09;7317690;19;129598;-38
2022/10/27 02:36:17;;;;;;;12.13;3.30;;;;;;;20.94;65.68;100290.59;7314837;19;129749;-37
2022/10/27 02:38:43;;;;;;;12.98;2.72;;;;;;;20.92;66.27;100295.13;7314818;19;129848;-35
2022/10/27 02:41:08;;;;;;;10.05;2.67;;;;;;;20.92;66.36;100294.28;7315964;19;129109;-37
2022/10/27 02:43:33;;;;;;;11.27;2.35;;;;;;;20.90;66.00;100299.63;7314636;19;129637;-35
2022/10/27 02:45:59;;;;;;;9.98;2.35;;;;;;;20.90;66.42;100301.41;7315720;19;129686;-35
2022/10/27 02:48:24;;;;;;;15.75;2.75;;;;;;;20.91;66.20;100303.91;7316787;19;128916;-35
2022/10/27 02:50:49;;;;;;;7.80;2.00;;;;;;;20.89;66.69;100303.19;7316022;19;129261;-35
2022/10/27 02:53:15;;;;;;;12.68;2.78;;;;;;;20.89;65.73;100294.53;7316523;19;130273;-36
2022/10/27 02:55:40;;;;;;;12.57;3.78;;;;;;;20.92;65.96;100295.13;7314811;19;130340;-37
2022/10/27 02:58:05;;;;;;;13.55;2.97;;;;;;;20.81;66.10;100281.22;7312107;19;128991;-37
2022/10/27 03:00:30;;;;;;;9.23;2.30;;;;;;;20.92;65.92;100295.13;7315760;19;128853;-37
2022/10/27 03:02:56;;;;;;;12.60;2.35;;;;;;;20.92;66.35;100300.34;7314264;19;129444;-37
2022/10/27 03:05:21;;;;;;;16.58;3.15;;;;;;;20.92;66.41;100309.97;7314056;19;130855;-36
2022/10/27 03:07:46;;;;;;;12.85;2.58;;;;;;;20.88;66.36;100295.47;7315206;19;129184;-36
2022/10/27 03:10:12;;;;;;;11.77;2.78;;;;;;;20.77;66.65;100291.06;7316135;19;129361;-37
2022/10/27 03:12:37;;;;;;;12.60;3.15;;;;;;;20.90;66.30;100307.47;7315543;19;129816;-37
2022/10/27 03:15:04;;;;;;;10.30;2.45;;;;;;;20.88;66.68;100303.28;7313746;19;129358;-38
2022/10/27 03:17:29;;;;;;;8.55;2.33;;;;;;;20.84;66.48;100297.47;7315105;19;129105;-37
2022/10/27 03:19:54;;;;;;;8.48;1.83;;;;;;;20.90;66.63;100307.47;7316587;19;129385;-37
2022/10/27 03:22:20;;;;;;;9.57;2.45;;;;;;;20.92;65.88;100310.81;7313495;19;130030;-36
2022/10/27 03:24:45;;;;;;;10.60;2.33;;;;;;;20.90;66.86;100311.84;7315352;19;130030;-36
2022/10/27 03:27:10;;;;;;;10.02;2.40;;;;;;;20.88;66.86;100314.59;7313984;19;130080;-37
2022/10/27 03:29:36;;;;;;;11.02;2.63;;;;;;;20.90;66.12;100311.84;7314979;19;129557;-35
2022/10/27 03:32:01;;;;;;;6.85;1.65;;;;;;;20.96;66.49;100314.84;7315476;19;129243;-36
2022/10/27 03:34:26;;;;;;;11.40;2.47;;;;;;;20.94;65.89;100314.09;7315495;19;129618;-36
2022/10/27 03:36:52;;;;;;;10.20;2.35;;;;;;;20.90;66.08;100323.16;7313071;19;129067;-37
2022/10/27 03:39:17;;;;;;;9.82;2.00;;;;;;;20.92;66.47;100320.41;7315808;19;129642;-36
2022/10/27 03:41:42;;;;;;;10.93;2.17;;;;;;;20.93;65.73;100317.69;7313029;19;130025;-36
2022/10/27 03:44:08;;;;;;;11.10;2.47;;;;;;;20.92;66.20;100323.88;7313895;19;129118;-36
2022/10/27 03:46:33;;;;;;;12.65;3.00;;;;;;;20.95;66.12;100322.78;7313297;19;129088;-37
2022/10/27 03:48:58;;;;;;;9.07;2.05;;;;;;;20.95;65.94;100333.25;7315801;19;130454;-37
2022/10/27 03:51:24;;;;;;;9.57;2.47;;;;;;;20.94;66.26;100329.78;7315321;19;129307;-36
2022/10/27 03:53:49;;;;;;;15.27;3.78;;;;;;;20.94;65.97;100335.03;7314298;19;129257;-36
2022/10/27 03:56:14;;;;;;;20.70;3.75;;;;;;;20.89;66.33;100342.38;7312875;19;129603;-36
2022/10/27 03:58:40;;;;;;;10.25;2.13;;;;;;;20.89;65.99;100344.19;7315377;19;129381;-37
2022/10/27 04:01:05;;;;;;;9.40;2.30;;;;;;;20.90;66.22;100345.84;7312767;19;129374;-37
2022/10/27 04:03:31;;;;;;;9.52;2.13;;;;;;;20.84;66.21;100328.84;7314470;19;129132;-37
2022/10/27 04:05:57;;;;;;;7.70;2.17;;;;;;;20.94;66.32;100353.31;7313241;19;129271;-37
2022/10/27 04:08:23;;;;;;;10.80;2.40;;;;;;;20.93;66.00;100343.81;7314263;19;129359;-37
2022/10/27 04:10:48;;;;;;;17.15;3.42;;;;;;;20.94;65.94;100350.69;7312792;19;130413;-37
2022/10/27 04:13:14;;;;;;;7.00;1.95;;;;;;;20.92;66.04;100352.63;7314582;19;129639;-36
2022/10/27 04:15:39;;;;;;;11.20;2.40;;;;;;;20.93;66.46;100354.28;7309600;19;129714;-37
2022/10/27 04:18:05;;;;;;;14.70;2.85;;;;;;;20.94;66.04;100355.94;7306559;19;129497;-36
2022/10/27 04:20:31;;;;;;;17.45;3.42;;;;;;;20.84;65.68;100343.69;7309252;19;129667;-36
2022/10/27 04:22:58;;;;;;;15.63;3.38;;;;;;;20.92;65.73;100357.84;7306444;19;129879;-37
2022/10/27 04:25:23;;;;;;;9.07;2.28;;;;;;;20.90;66.01;100367.59;7310499;19;131217;-36
2022/10/27 04:27:49;;;;;;;14.00;2.90;;;;;;;20.95;66.48;100362.84;7311769;19;129128;-37
2022/10/27 04:30:14;;;;;;;7.32;1.70;;;;;;;20.96;66.23;100361.06;7313127;19;129614;-37
2022/10/27 04:32:40;;;;;;;10.40;2.90;;;;;;;20.94;66.09;100358.53;7312858;19;129210;-37
2022/10/27 04:35:06;;;;;;;11.23;2.80;;;;;;;20.94;66.35;100361.16;7310777;19;130362;-37
2022/10/27 04:37:32;;;;;;;24.52;5.25;;;;;;;20.89;66.12;100362.47;7304540;19;129960;-37
2022/10/27 04:39:58;;;;;;;15.20;3.00;;;;;;;20.92;66.37;100368.31;7312852;19;130864;-37
2022/10/27 04:42:23;;;;;;;7.75;1.85;;;;;;;20.91;65.92;100366.63;7310533;19;129727;-37
2022/10/27 04:44:49;;;;;;;16.38;3.92;;;;;;;20.92;66.71;100370.94;7309264;19;130572;-36
2022/10/27 04:47:14;;;;;;;13.93;3.00;;;;;;;20.92;66.28;100373.53;7309716;19;130264;-36
2022/10/27 04:49:39;;;;;;;10.52;2.28;;;;;;;20.93;66.22;100375.19;7311535;19;132154;-38
2022/10/27 04:52:05;;;;;;;12.20;2.97;;;;;;;20.92;66.31;100378.75;7311947;19;129766;-35
2022/10/27 04:54:30;;;;;;;10.77;2.35;;;;;;;20.81;66.40;100357.81;7304884;19;131321;-35
2022/10/27 04:56:56;;;;;;;15.43;3.10;;;;;;;20.88;66.49;100379.94;7311105;19;129517;-37
2022/10/27 04:59:21;;;;;;;10.23;2.22;;;;;;;20.92;66.27;100373.53;7313072;19;129483;-36
2022/10/27 05:01:46;;;;;;;8.20;1.88;;;;;;;20.92;66.68;100377.94;7310062;19;129851;-38
2022/10/27 05:04:12;;;;;;;14.52;3.15;;;;;;;20.92;65.88;100384.00;7311127;19;129372;-37
2022/10/27 05:06:37;;;;;;;15.23;2.95;;;;;;;20.86;66.24;100392.28;7308825;19;129732;-35
2022/10/27 05:09:02;;;;;;;2.38;1.17;;;;;;;20.88;66.26;100398.22;7311056;19;129379;-36
2022/10/27 05:11:28;;;;;;;8.65;1.95;;;;;;;20.88;66.63;100392.16;7310121;19;129675;-37
2022/10/27 05:13:53;;;;;;;13.27;2.42;;;;;;;20.95;66.51;100398.59;7312899;19;129437;-36
2022/10/27 05:16:18;;;;;;;12.68;2.70;;;;;;;20.95;65.89;100393.38;7310326;19;129095;-37
2022/10/27 05:18:44;;;;;;;10.73;2.35;;;;;;;20.83;66.05;100383.84;7311550;19;129693;-37
2022/10/27 05:21:10;;;;;;;10.20;2.47;;;;;;;20.94;65.96;100402.19;7309015;19;129992;-36
2022/10/27 05:23:35;;;;;;;20.25;4.15;;;;;;;20.84;66.25;100385.50;7311715;19;130115;-37
2022/10/27 05:26:01;;;;;;;21.33;2.92;;;;;;;20.93;66.67;100409.16;7311150;19;130107;-35
2022/10/27 05:28:26;;;;;;;4.78;1.75;;;;;;;20.92;66.22;100404.06;7309448;19;130077;-37
2022/10/27 05:30:58;;;;;;;9.95;1.95;;;;;;;20.93;67.10;100409.16;7311883;19;130831;-37
2022/10/27 05:33:25;;;;;;;10.60;2.55;;;;;;;20.90;66.10;100409.41;7311510;19;129206;-36
2022/10/27 05:35:51;;;;;;;11.18;2.10;;;;;;;20.91;65.66;100411.06;7312644;19;128924;-37
2022/10/27 05:38:16;;;;;;;10.93;2.22;;;;;;;20.83;66.01;100400.34;7310556;19;129512;-37
2022/10/27 05:40:42;;;;;;;5.00;1.35;;;;;;;20.92;66.46;100415.38;7312743;19;129398;-37
2022/10/27 05:43:08;;;;;;;11.15;2.50;;;;;;;20.94;66.10;100417.84;7311119;19;129775;-36
2022/10/27 05:45:34;;;;;;;9.30;2.22;;;;;;;20.95;65.76;100422.13;7311165;19;128970;-37
2022/10/27 05:48:04;;;;;;;10.07;2.05;;;;;;;20.96;66.43;100415.97;7309544;19;129367;-34
2022/10/27 05:50:31;;;;;;;9.90;1.98;;;;;;;20.93;65.85;100416.16;7316465;19;130986;-37
2022/10/27 05:52:56;;;;;;;9.88;2.38;;;;;;;20.95;66.33;100416.91;7316879;19;130134;-37
2022/10/27 05:55:23;;;;;;;11.52;2.20;;;;;;;20.95;65.73;100409.91;7318854;19;128935;-36
2022/10/27 05:58:06;;;;;;;;;;;;;;;20.96;67.76;100416.78;7318227;19;129970;-37
2022/10/27 06:00:35;;;;;;;21.38;4.45;;;;;;;20.91;66.48;100413.69;7314617;19;131604;-37
2022/10/27 06:03:02;;;;;;;9.70;2.15;;;;;;;20.91;65.79;100423.31;7314091;19;129666;-37
2022/10/27 06:05:28;;;;;;;;;;;;;;;20.97;67.53;100421.09;7318202;19;129562;-37
2022/10/27 06:07:54;;;;;;;10.90;2.28;;;;;;;20.83;66.49;100405.59;7316918;19;129166;-37
2022/10/27 06:10:19;;;;;;;8.32;2.08;;;;;;;20.91;66.24;100429.34;7319343;19;128856;-36
2022/10/27 06:12:45;;;;;;;10.48;2.28;;;;;;;20.90;66.43;100419.03;7317057;19;128929;-37
2022/10/27 06:15:10;;;;;;;11.57;2.60;;;;;;;20.93;66.15;100424.84;7315651;19;129354;-37
2022/10/27 06:17:36;;;;;;;17.75;3.85;;;;;;;20.92;66.14;100428.44;7315454;19;129085;-36
2022/10/27 06:20:01;;;;;;;8.18;1.63;;;;;;;20.91;66.29;100431.97;7318238;19;129662;-37
2022/10/27 06:22:26;;;;;;;7.07;1.67;;;;;;;20.90;66.31;100426.88;7316824;19;130150;-38
2022/10/27 06:24:52;;;;;;;15.05;2.78;;;;;;;20.95;66.02;100441.25;7315731;19;129433;-37
2022/10/27 06:27:17;;;;;;;9.95;2.15;;;;;;;20.82;66.11;100422.22;7311211;19;129070;-37
2022/10/27 06:29:43;;;;;;;10.25;2.65;;;;;;;20.89;66.51;100441.69;7317709;19;129297;-36
2022/10/27 06:32:08;;;;;;;8.43;1.70;;;;;;;20.79;66.62;100430.28;7317271;19;129120;-37
2022/10/27 06:34:33;;;;;;;17.65;3.58;;;;;;;20.89;66.94;100452.16;7316995;19;129378;-37
2022/10/27 06:36:59;;;;;;;10.50;1.80;;;;;;;20.89;66.59;100453.97;7316925;19;129313;-36
2022/10/27 06:39:24;;;;;;;7.47;1.73;;;;;;;20.94;65.71;100468.34;7316556;19;129452;-36
2022/10/27 06:41:49;;;;;;;9.82;2.28;;;;;;;20.95;65.93;100467.41;7315793;19;128959;-38
2022/10/27 06:44:15;;;;;;;14.38;2.85;;;;;;;20.94;66.35;100465.72;7318021;19;129168;-37
2022/10/27 06:46:40;;;;;;;9.18;2.03;;;;;;;20.92;66.63;100467.63;7316756;19;129595;-36
2022/10/27 06:49:05;;;;;;;3.90;1.02;;;;;;;20.92;66.29;100469.41;7317531;19;129486;-37
2022/10/27 06:51:31;;;;;;;18.00;3.67;;;;;;;20.89;66.12;100473.06;7316405;19;128958;-37
2022/10/27 06:53:56;;;;;;;11.45;2.40;;;;;;;20.88;65.96;100479.25;7317961;19;128923;-37
2022/10/27 06:56:22;;;;;;;7.93;1.83;;;;;;;20.87;66.33;100479.38;7316471;19;129511;-37
2022/10/27 06:58:48;;;;;;;7.70;2.17;;;;;;;20.87;66.44;100464.53;7316813;19;130321;-37
2022/10/27 07:01:13;;;;;;;14.35;2.67;;;;;;;20.91;66.72;100476.41;7315800;19;128812;-37
2022/10/27 07:03:39;;;;;;;8.85;1.92;;;;;;;20.90;65.96;100490.44;7315217;19;128949;-35
2022/10/27 07:06:05;;;;;;;8.65;1.60;;;;;;;20.92;65.66;100485.94;7316309;19;129586;-40
2022/10/27 07:08:30;;;;;;;17.10;3.80;;;;;;;20.81;66.08;100480.66;7312439;19;129829;-36
2022/10/27 07:10:55;;;;;;;19.33;3.03;;;;;;;20.90;66.81;100492.22;7311928;19;129298;-36
2022/10/27 07:13:21;;;;;;;18.98;3.45;;;;;;;20.91;65.79;100499.94;7314276;19;129568;-36
2022/10/27 07:15:46;;;;;;;12.38;2.60;;;;;;;20.77;67.53;100485.25;7310369;19;129028;-36
2022/10/27 07:18:11;;;;;;;10.27;2.47;;;;;;;20.77;67.95;100499.28;7309482;19;129607;-37
2022/10/27 07:20:40;;;;;;;15.82;3.25;;;;;;;20.80;66.45;100499.06;7315910;19;129328;-37
2022/10/27 07:23:09;;;;;;;10.20;2.25;;;;;;;20.82;67.40;100505.84;7314361;19;128995;-36
2022/10/27 07:25:35;;;;;;;8.10;2.05;;;;;;;20.84;66.80;100506.56;7315797;19;129344;-37
2022/10/27 07:28:02;;;;;;;10.98;2.65;;;;;;;20.85;66.03;100508.22;7310156;19;130531;-37
2022/10/27 07:30:33;;;;;;;21.95;4.40;;;;;;;20.86;67.15;100509.91;7314981;19;129464;-37
2022/10/27 07:32:58;;;;;;;14.48;3.10;;;;;;;20.89;67.51;100512.28;7316356;19;129173;-34
2022/10/27 07:35:24;;;;;;;28.30;5.45;;;;;;;20.75;66.43;100502.00;7312751;19;130000;-37
2022/10/27 07:37:50;;;;;;;12.32;2.50;;;;;;;20.90;66.25;100520.97;7309585;19;131554;-37
2022/10/27 07:40:17;;;;;;;11.52;3.10;;;;;;;20.90;65.94;100516.56;7315391;19;130798;-36
2022/10/27 07:42:48;;;;;;;7.57;2.63;;;;;;;20.90;67.00;100524.41;7308862;19;131240;-36
2022/10/27 07:45:15;;;;;;;14.63;3.45;;;;;;;20.79;66.15;100510.47;7311106;19;129677;-37
2022/10/27 07:47:48;;;;;;;13.75;3.83;;;;;;;20.84;67.50;100521.41;7308161;19;130567;-37
2022/10/27 07:50:14;;;;;;;22.17;4.70;;;;;;;20.81;64.83;100527.69;7314975;19;129937;-38
2022/10/27 07:52:46;;;;;;;15.63;4.97;;;;;;;20.79;65.36;100534.84;7314674;19;128798;-35
2022/10/27 07:55:14;;;;;;;16.38;5.43;;;;;;;20.72;64.33;100517.94;7309660;19;129752;-37
2022/10/27 07:57:40;;;;;;;15.95;5.57;;;;;;;20.79;64.29;100524.38;7310927;19;131315;-36
2022/10/27 08:00:08;;;;;;;17.38;5.70;;;;;;;20.79;64.59;100529.59;7313165;19;129111;-37
2022/10/27 08:02:34;;;;;;;20.75;5.55;;;;;;;20.82;63.60;100529.38;7310949;19;129918;-37
2022/10/27 08:04:59;;;;;;;22.63;6.85;;;;;;;20.84;63.69;100522.22;7310314;19;130583;-37
2022/10/27 08:07:25;;;;;;;12.25;4.35;;;;;;;20.82;63.79;100526.75;7311752;19;129178;-36
2022/10/27 08:09:50;;;;;;;23.90;6.78;;;;;;;20.82;63.50;100528.53;7307953;19;131560;-37
2022/10/27 08:12:16;;;;;;;29.33;7.75;;;;;;;20.88;63.13;100525.47;7311414;19;129757;-36
2022/10/27 08:14:41;;;;;;;13.88;4.55;;;;;;;20.89;63.54;100521.91;7313277;19;131192;-37
2022/10/27 08:17:07;;;;;;;13.25;4.85;;;;;;;20.78;64.60;100512.25;7310277;19;129165;-36
2022/10/27 08:19:32;;;;;;;13.48;4.82;;;;;;;20.85;64.70;100529.16;7311515;19;129826;-38
2022/10/27 08:21:57;;;;;;;22.52;6.45;;;;;;;20.72;64.90;100507.47;7312971;19;130090;-36
2022/10/27 08:24:23;;;;;;;20.98;6.05;;;;;;;20.85;63.72;100523.91;7311150;19;129110;-37
2022/10/27 08:26:48;;;;;;;13.10;4.70;;;;;;;20.73;63.81;100503.91;7305541;19;129553;-36
2022/10/27 08:29:13;;;;;;;12.52;4.13;;;;;;;20.81;64.92;100517.22;7314564;19;129397;-35
2022/10/27 08:31:39;;;;;;;16.30;5.18;;;;;;;20.73;64.27;100504.75;7312701;19;129572;-36
2022/10/27 08:34:04;;;;;;;12.40;3.85;;;;;;;20.84;64.46;100522.22;7314237;19;129454;-37
2022/10/27 08:36:31;;;;;;;24.15;7.28;;;;;;;20.85;64.66;100529.16;7310711;19;129438;-38
2022/10/27 08:38:57;;;;;;;19.45;5.55;;;;;;;20.84;64.53;100527.47;7313122;19;129262;-37
2022/10/27 08:41:36;;;;;;;12.60;4.03;;;;;;;20.87;65.33;100529.03;7311719;19;131018;-36
2022/10/27 08:44:13;;;;;;;10.40;3.78;;;;;;;20.74;66.43;100510.81;7312682;19;129221;-37
2022/10/27 08:47:03;;;;;;;;;;;;;;;20.88;66.36;100534.16;7312177;19;130527;-36
2022/10/27 08:49:37;;;;;;;15.82;4.28;;;;;;;20.93;64.51;100532.03;7313181;19;129225;-36
2022/10/27 08:52:40;;;;;;;14.27;4.63;;;;;;;20.89;65.77;100529.75;7313350;19;130814;-36
2022/10/27 08:55:26;;;;;;;15.18;4.38;;;;;;;20.86;64.42;100524.75;7312594;19;130173;-37
2022/10/27 08:58:23;;;;;;;11.30;4.22;;;;;;;20.85;66.19;100523.06;7309846;19;129675;-37
2022/10/27 09:00:57;;;;;;;18.70;5.22;;;;;;;20.83;65.59;100519.72;7310765;19;129381;-37
2022/10/27 09:04:01;;;;;;;14.57;4.63;;;;;;;20.85;66.19;100521.31;7310562;19;128996;-35
2022/10/27 09:06:30;;;;;;;13.27;4.70;;;;;;;20.84;65.78;100522.22;7309012;19;130138;-39
2022/10/27 09:09:20;;;;;;;13.43;4.45;;;;;;;20.83;66.02;100517.97;7308484;19;131563;-37
2022/10/27 09:12:15;;;;;;;11.82;3.78;;;;;;;20.82;65.89;100518.06;7312730;19;129010;-37
2022/10/27 09:15:07;;;;;;;18.13;4.78;;;;;;;20.81;66.73;100514.63;7313220;19;129609;-37
2022/10/27 09:17:42;;;;;;;16.67;4.00;;;;;;;20.81;65.86;100527.69;7310856;19;129372;-37
2022/10/27 09:20:18;;;;;;;11.95;3.88;;;;;;;20.84;65.50;100524.84;7313298;19;129106;-34
2022/10/27 09:22:43;;;;;;;12.25;4.35;;;;;;;20.85;63.92;100526.53;7310216;19;128883;-37
2022/10/27 09:25:17;;;;;;;24.48;6.05;;;;;;;20.89;65.02;100527.16;7310047;19;129121;-37
2022/10/27 09:27:44;;;;;;;16.85;5.47;;;;;;;20.87;64.75;100519.41;7306511;19;129428;-37
2022/10/27 09:30:12;;;;;;;13.35;3.97;;;;;;;20.89;65.02;100527.16;7309096;19;129160;-37
2022/10/27 09:32:41;;;;;;;16.38;4.63;;;;;;;20.91;64.39;100528.69;7311295;19;129427;-36
2022/10/27 09:35:11;;;;;;;16.45;4.38;;;;;;;20.85;64.86;100526.53;7311130;19;128952;-37
2022/10/27 09:37:39;;;;;;;17.40;4.70;;;;;;;20.87;64.12;100516.81;7309338;19;129420;-37
2022/10/27 09:40:13;;;;;;;12.63;3.85;;;;;;;20.89;65.20;100516.69;7312112;19;129534;-38
2022/10/27 09:42:40;;;;;;;15.05;5.13;;;;;;;20.86;64.29;100517.72;7312406;19;129085;-35
2022/10/27 09:45:26;;;;;;;3.45;2.42;;;;;;;20.88;65.94;100523.69;7311808;19;129550;-37
2022/10/27 09:47:55;;;;;;;10.77;3.45;;;;;;;20.90;64.63;100516.56;7308521;19;129439;-37
2022/10/27 09:50:24;;;;;;;12.65;3.30;;;;;;;20.89;64.58;100514.88;7311522;19;129325;-37
2022/10/27 09:52:50;;;;;;;15.63;4.03;;;;;;;20.90;64.43;100508.72;7311117;19;129380;-37
2022/10/27 09:55:17;;;;;;;4.47;2.90;;;;;;;20.90;65.34;100513.97;7310187;19;130071;-37
2022/10/27 09:57:44;;;;;;;8.35;3.20;;;;;;;20.83;64.42;100489.22;7309428;19;129348;-38
2022/10/27 10:00:15;;;;;;;19.27;5.50;;;;;;;20.87;65.50;100495.91;7310373;19;130520;-38
2022/10/27 10:03:05;;;;;;;19.52;4.95;;;;;;;20.91;65.53;100492.09;7309871;19;128891;-35
2022/10/27 10:05:35;;;;;;;16.70;4.53;;;;;;;20.92;64.44;100493.78;7311123;19;128855;-37
2022/10/27 10:08:24;;;;;;;11.35;3.25;;;;;;;20.90;66.32;100498.28;7309676;19;130745;-37
2022/10/27 10:11:00;;;;;;;11.65;3.63;;;;;;;20.89;64.84;100491.38;7311950;19;129693;-37
2022/10/27 10:13:28;;;;;;;9.13;3.42;;;;;;;20.90;64.97;100495.66;7310612;19;128796;-38
2022/10/27 10:16:08;;;;;;;24.13;5.95;;;;;;;20.94;65.99;100497.09;7307744;19;129155;-36
2022/10/27 10:18:34;;;;;;;12.80;3.58;;;;;;;20.90;64.91;100500.88;7311252;19;129087;-36
2022/10/27 10:21:07;;;;;;;16.58;4.65;;;;;;;20.92;65.76;100493.78;7309669;19;131756;-35
2022/10/27 10:23:36;;;;;;;30.80;6.50;;;;;;;20.92;65.17;100499.00;7307027;19;129515;-35
2022/10/27 10:26:13;;;;;;;12.63;3.55;;;;;;;20.91;65.61;100494.72;7306309;19;131265;-36
2022/10/27 10:28:41;;;;;;;11.35;3.88;;;;;;;20.92;65.36;100492.94;7310233;19;129038;-37
2022/10/27 10:31:10;;;;;;;20.15;4.63;;;;;;;20.93;65.20;100492.81;7309107;19;129150;-36
2022/10/27 10:33:39;;;;;;;18.17;4.80;;;;;;;20.94;65.14;100491.84;7309244;19;130013;-37
2022/10/27 10:36:23;;;;;;;14.75;3.65;;;;;;;20.94;66.37;100491.03;7311483;19;129476;-35
2022/10/27 10:38:56;;;;;;;11.50;3.20;;;;;;;20.93;65.43;100489.34;7318558;19;129947;-35
2022/10/27 10:41:23;;;;;;;20.55;4.50;;;;;;;20.81;64.78;100469.38;7315706;19;129138;-37
2022/10/27 10:44:13;;;;;;;11.48;3.63;;;;;;;20.93;66.19;100490.19;7311825;19;129814;-35
2022/10/27 10:47:05;;;;;;;9.52;3.08;;;;;;;20.90;65.25;100482.59;7316232;19;129677;-36
2022/10/27 10:49:35;;;;;;;10.80;3.17;;;;;;;20.88;64.51;100486.25;7316172;19;129173;-37
2022/10/27 10:52:05;;;;;;;8.38;2.63;;;;;;;20.94;65.38;100491.03;7317163;19;129547;-37
2022/10/27 10:54:36;;;;;;;10.27;3.10;;;;;;;20.93;65.28;100486.75;7316860;19;129335;-34
2022/10/27 10:57:02;;;;;;;16.77;3.95;;;;;;;20.93;64.96;100484.97;7314938;19;129172;-36
2022/10/27 10:59:30;;;;;;;15.18;3.60;;;;;;;20.91;65.66;100480.81;7311102;19;130125;-36
2022/10/27 11:02:01;;;;;;;6.60;2.67;;;;;;;20.83;65.97;100462.25;7315066;19;131971;-37
2022/10/27 11:04:37;;;;;;;18.80;4.63;;;;;;;20.90;65.71;100474.75;7316927;19;129097;-36
2022/10/27 11:07:14;;;;;;;16.02;3.92;;;;;;;20.88;66.22;100471.41;7313776;19;129314;-36
2022/10/27 11:10:20;;;;;;;16.60;3.65;;;;;;;20.90;66.67;100469.53;7316780;19;129029;-36
2022/10/27 11:12:57;;;;;;;11.07;3.45;;;;;;;20.92;65.93;100462.41;7317299;19;129240;-34
2022/10/27 11:15:30;;;;;;;15.80;3.60;;;;;;;20.93;65.98;100464.06;7315272;19;129249;-35
2022/10/27 11:18:10;;;;;;;12.52;3.38;;;;;;;20.94;65.80;100455.25;7315582;19;129577;-37
2022/10/27 11:20:36;;;;;;;10.73;2.90;;;;;;;20.88;65.00;100460.97;7316522;19;129646;-36
2022/10/27 11:23:12;;;;;;;10.52;3.08;;;;;;;20.90;65.33;100466.91;7312151;19;130556;-36